createdAt,value
2019-04-05T00:01:23.551Z,5.23
2019-04-05T00:03:50.573Z,6.67
2019-04-05T00:06:17.510Z,6.20
2019-04-05T00:08:45.449Z,5.67
2019-04-05T00:11:12.328Z,6.63
2019-04-05T00:13:39.469Z,6.47
2019-04-05T00:16:06.496Z,6.17
2019-04-05T00:18:33.839Z,6.83
2019-04-05T00:21:01.786Z,6.40
2019-04-05T00:23:28.787Z,6.33
2019-04-05T00:25:56.104Z,6.67
2019-04-05T00:28:24.926Z,6.87
2019-04-05T00:30:51.883Z,6.80
2019-04-05T00:33:18.713Z,6.37
2019-04-05T00:35:45.529Z,6.77
2019-04-05T00:38:12.436Z,6.53
2019-04-05T00:40:40.404Z,7.20
2019-04-05T00:43:07.241Z,7.50
2019-04-05T00:45:39.024Z,6.80
2019-04-05T00:48:14.942Z,6.80
2019-04-05T00:50:42.075Z,7.10
2019-04-05T00:53:09.977Z,7.13
2019-04-05T00:55:36.930Z,7.43
2019-04-05T00:58:03.927Z,8.30
2019-04-05T01:00:30.933Z,7.13
2019-04-05T01:02:57.971Z,7.23
2019-04-05T01:05:25.019Z,7.30
2019-04-05T01:08:00.832Z,7.10
2019-04-05T01:10:27.784Z,7.53
2019-04-05T01:12:54.764Z,7.70
2019-04-05T01:15:21.983Z,7.43
2019-04-05T01:17:55.728Z,8.20
2019-04-05T01:20:24.889Z,7.50
2019-04-05T01:22:52.223Z,7.07
2019-04-05T01:25:19.194Z,7.70
2019-04-05T01:27:48.371Z,7.33
2019-04-05T01:30:20.740Z,6.87
2019-04-05T01:32:49.662Z,7.20
2019-04-05T01:35:16.620Z,7.53
2019-04-05T01:37:44.621Z,6.77
2019-04-05T01:40:11.554Z,7.20
2019-04-05T01:42:38.526Z,6.47
2019-04-05T01:45:06.503Z,8.10
2019-04-05T01:47:36.094Z,6.93
2019-04-05T01:50:05.453Z,7.00
2019-04-05T01:52:32.811Z,6.17
2019-04-05T01:55:02.974Z,7.20
2019-04-05T01:57:29.981Z,6.70
2019-04-05T01:59:57.029Z,6.70
2019-04-05T02:02:24.025Z,6.67
2019-04-05T02:04:52.862Z,6.97
2019-04-05T02:07:22.732Z,7.30
2019-04-05T02:09:51.774Z,6.30
2019-04-05T02:12:18.837Z,6.37
2019-04-05T02:14:45.905Z,6.77
2019-04-05T02:17:13.969Z,7.40
2019-04-05T02:19:43.964Z,6.97
2019-04-05T02:22:11.469Z,7.77
2019-04-05T02:24:44.753Z,7.93
2019-04-05T02:27:17.837Z,8.00
2019-04-05T02:29:45.949Z,7.90
2019-04-05T02:32:12.878Z,8.57
2019-04-05T02:34:39.887Z,7.03
2019-04-05T02:37:07.852Z,7.70
2019-04-05T02:39:36.041Z,8.27
2019-04-05T02:42:10.231Z,8.03
2019-04-05T02:44:37.125Z,8.10
2019-04-05T02:47:04.139Z,7.43
2019-04-05T02:49:32.185Z,7.87
2019-04-05T02:52:00.185Z,7.50
2019-04-05T02:54:29.269Z,7.23
2019-04-05T02:56:56.131Z,7.27
2019-04-05T02:59:23.740Z,8.07
2019-04-05T03:01:50.632Z,6.90
2019-04-05T03:04:20.537Z,8.70
2019-04-05T03:06:48.308Z,7.57
2019-04-05T03:09:15.186Z,7.60
2019-04-05T03:11:44.005Z,7.90
2019-04-05T03:14:10.926Z,7.90
2019-04-05T03:16:41.995Z,8.10
2019-04-05T03:19:15.788Z,6.80
2019-04-05T03:21:46.999Z,7.70
2019-04-05T03:24:18.376Z,7.20
2019-04-05T03:26:49.797Z,7.20
2019-04-05T03:29:22.495Z,7.67
2019-04-05T03:31:49.591Z,7.60
2019-04-05T03:34:16.494Z,6.83
2019-04-05T03:36:45.423Z,7.30
2019-04-05T03:39:14.231Z,7.90
2019-04-05T03:41:41.125Z,6.77
2019-04-05T03:44:08.101Z,7.83
2019-04-05T03:46:35.084Z,6.97
2019-04-05T03:49:02.677Z,6.47
2019-04-05T03:51:29.828Z,8.03
2019-04-05T03:53:56.731Z,7.03
2019-04-05T03:56:23.548Z,7.00
2019-04-05T03:58:50.689Z,6.70
2019-04-05T04:01:17.637Z,6.30
2019-04-05T04:03:44.608Z,5.83
2019-04-05T04:06:13.496Z,6.67
2019-04-05T04:08:43.377Z,6.33
2019-04-05T04:11:10.251Z,6.40
2019-04-05T04:13:37.466Z,6.57
2019-04-05T04:16:04.467Z,6.57
2019-04-05T04:18:31.588Z,6.73
2019-04-05T04:21:00.445Z,5.70
2019-04-05T04:23:28.409Z,6.50
2019-04-05T04:26:00.414Z,6.57
2019-04-05T04:28:27.322Z,6.63
2019-04-05T04:31:03.396Z,6.43
2019-04-05T04:33:31.609Z,6.13
2019-04-05T04:36:00.110Z,6.03
2019-04-05T04:38:40.225Z,6.17
2019-04-05T04:41:15.884Z,5.73
2019-04-05T04:43:42.982Z,6.40
2019-04-05T04:46:10.009Z,5.87
2019-04-05T04:48:38.130Z,6.50
2019-04-05T04:51:05.005Z,6.10
2019-04-05T04:53:36.388Z,5.63
2019-04-05T04:56:05.315Z,5.63
2019-04-05T04:58:32.176Z,6.77
2019-04-05T05:01:01.004Z,6.27
2019-04-05T05:03:28.820Z,6.97
2019-04-05T05:05:55.715Z,5.37
2019-04-05T05:08:22.489Z,6.27
2019-04-05T05:10:50.347Z,6.37
2019-04-05T05:13:17.209Z,6.43
2019-04-05T05:15:44.161Z,6.53
2019-04-05T05:18:16.776Z,6.10
2019-04-05T05:20:43.942Z,6.80
2019-04-05T05:23:10.817Z,5.17
2019-04-05T05:25:38.980Z,5.70
2019-04-05T05:28:07.961Z,6.83
2019-04-05T05:30:37.998Z,6.07
2019-04-05T05:33:12.013Z,6.33
2019-04-05T05:35:49.460Z,7.20
2019-04-05T05:38:16.615Z,6.53
2019-04-05T05:40:46.125Z,7.43
2019-04-05T05:43:14.137Z,7.73
2019-04-05T05:45:41.638Z,6.97
2019-04-05T05:48:08.540Z,6.80
2019-04-05T05:50:43.696Z,6.97
2019-04-05T05:53:10.550Z,7.30
2019-04-05T05:55:38.731Z,6.93
2019-04-05T05:58:06.885Z,7.30
2019-04-05T06:00:33.727Z,6.90
2019-04-05T06:03:00.556Z,7.83
2019-04-05T06:05:28.481Z,8.43
2019-04-05T06:08:01.608Z,9.13
2019-04-05T06:10:36.327Z,7.40
2019-04-05T06:13:06.706Z,8.73
2019-04-05T06:15:32.891Z,9.03
2019-04-05T06:18:05.014Z,9.63
2019-04-05T06:20:30.671Z,10.00
2019-04-05T06:22:57.515Z,9.77
2019-04-05T06:25:33.819Z,10.10
2019-04-05T06:28:01.110Z,11.37
2019-04-05T06:30:34.080Z,11.97
2019-04-05T06:33:15.608Z,14.80
2019-04-05T06:35:42.603Z,14.10
2019-04-05T06:38:09.642Z,21.47
2019-04-05T06:40:41.093Z,27.37
2019-04-05T06:43:06.928Z,35.00
2019-04-05T06:45:33.936Z,47.37
2019-04-05T06:48:03.749Z,52.57
2019-04-05T06:50:30.604Z,55.53
2019-04-05T06:52:58.591Z,59.00
2019-04-05T06:55:25.726Z,58.30
2019-04-05T06:57:58.608Z,54.93
2019-04-05T07:00:30.314Z,53.87
2019-04-05T07:02:58.079Z,52.00
2019-04-05T07:05:25.021Z,36.07
2019-04-05T07:07:51.857Z,29.20
2019-04-05T07:10:18.661Z,16.90
2019-04-05T07:12:48.630Z,10.90
2019-04-05T07:15:15.544Z,10.00
2019-04-05T07:17:48.189Z,9.47
2019-04-05T07:20:15.149Z,9.13
2019-04-05T07:22:42.972Z,8.40
2019-04-05T07:25:11.191Z,8.27
2019-04-05T07:27:45.259Z,7.07
2019-04-05T07:30:12.119Z,7.40
2019-04-05T07:32:39.145Z,6.80
2019-04-05T07:35:06.109Z,6.87
2019-04-05T07:37:33.512Z,6.87
2019-04-05T07:40:00.420Z,6.30
2019-04-05T07:42:28.315Z,6.60
2019-04-05T07:44:55.184Z,6.30
2019-04-05T07:47:22.052Z,6.37
2019-04-05T07:49:48.814Z,5.27
2019-04-05T07:52:17.594Z,5.23
2019-04-05T07:54:44.467Z,5.33
2019-04-05T07:57:14.380Z,5.20
2019-04-05T07:59:42.388Z,4.70
2019-04-05T08:02:10.217Z,4.47
2019-04-05T08:04:38.414Z,4.90
2019-04-05T08:07:05.646Z,5.30
2019-04-05T08:09:36.361Z,4.70
2019-04-05T08:12:03.713Z,5.10
2019-04-05T08:14:35.917Z,4.77
2019-04-05T08:17:03.896Z,5.47
2019-04-05T08:19:30.985Z,5.20
2019-04-05T08:21:58.506Z,5.50
2019-04-05T08:24:25.545Z,5.27
2019-04-05T08:26:52.667Z,5.77
2019-04-05T08:29:20.941Z,5.40
2019-04-05T08:31:47.866Z,6.17
2019-04-05T08:34:14.661Z,5.63
2019-04-05T08:36:42.496Z,5.43
2019-04-05T08:46:51.384Z,5.63
2019-04-05T08:49:19.239Z,5.93
2019-04-05T08:51:48.108Z,6.63
2019-04-05T08:54:16.958Z,6.07
2019-04-05T08:56:43.800Z,6.33
2019-04-05T08:59:10.587Z,6.03
2019-04-05T09:01:37.444Z,6.83
2019-04-05T09:04:06.261Z,5.97
2019-04-05T09:06:34.137Z,5.80
2019-04-05T09:09:04.012Z,6.27
2019-04-05T09:11:31.248Z,6.03
2019-04-05T09:13:59.516Z,6.37
2019-04-05T09:16:26.402Z,5.50
2019-04-05T09:18:53.679Z,6.20
2019-04-05T09:21:35.034Z,5.47
2019-04-05T09:24:27.636Z,5.97
2019-04-05T09:27:02.785Z,6.67
2019-04-05T09:29:31.946Z,6.23
2019-04-05T09:32:02.328Z,6.47
2019-04-05T09:34:32.484Z,6.67
2019-04-05T09:37:06.342Z,6.17
2019-04-05T09:39:43.263Z,6.20
2019-04-05T09:42:10.150Z,7.13
2019-04-05T09:44:42.987Z,7.03
2019-04-05T09:47:09.840Z,6.43
2019-04-05T09:49:37.538Z,6.70
2019-04-05T09:52:08.147Z,6.77
2019-04-05T10:13:31.302Z,7.63
2019-04-05T10:16:01.383Z,7.90
2019-04-05T10:18:28.389Z,8.40
2019-04-05T10:20:57.439Z,8.67
2019-04-05T10:23:24.608Z,8.93
2019-04-05T10:25:51.700Z,8.67
2019-04-05T10:28:18.545Z,9.23
2019-04-05T10:30:45.517Z,9.33
2019-04-05T10:33:14.590Z,8.93
2019-04-05T10:35:47.533Z,9.07
2019-04-05T10:38:21.575Z,9.43
2019-04-05T10:40:55.573Z,11.00
2019-04-05T10:43:22.515Z,10.73
2019-04-05T10:45:49.364Z,11.27
2019-04-05T10:48:16.556Z,11.40
2019-04-05T10:50:43.400Z,11.00
2019-04-05T10:53:13.578Z,11.03
2019-04-05T10:55:40.527Z,10.37
2019-04-05T10:58:07.817Z,10.20
2019-04-05T11:00:34.789Z,10.40
2019-04-05T11:03:01.724Z,11.33
2019-04-05T11:05:28.824Z,10.03
2019-04-05T11:07:55.638Z,10.60
2019-04-05T11:10:22.556Z,10.57
2019-04-05T11:12:50.193Z,10.57
2019-04-05T11:15:20.469Z,10.10
2019-04-05T11:17:47.688Z,10.30
2019-04-05T11:20:22.377Z,10.50
2019-04-05T11:22:46.475Z,10.30
2019-04-05T11:25:20.724Z,9.67
2019-04-05T11:27:47.219Z,9.60
2019-04-05T11:30:26.952Z,8.77
2019-04-05T11:32:55.284Z,8.60
2019-04-05T11:35:23.165Z,8.30
2019-04-05T11:37:50.839Z,8.23
2019-04-05T12:21:34.769Z,5.93
2019-04-05T12:24:48.255Z,6.37
2019-04-05T12:27:35.127Z,6.77
2019-04-05T12:30:06.238Z,6.57
2019-04-05T12:32:54.115Z,5.77
2019-04-05T12:42:38.014Z,6.50
2019-04-05T12:45:18.910Z,6.07
2019-04-05T12:47:50.307Z,7.27
2019-04-05T12:50:23.306Z,6.40
2019-04-05T12:52:54.708Z,6.83
2019-04-05T12:55:30.535Z,6.80
2019-04-05T12:57:57.550Z,6.67
2019-04-05T13:00:26.039Z,6.80
2019-04-05T13:02:57.741Z,6.53
2019-04-05T13:05:26.071Z,6.27
2019-04-05T13:07:54.115Z,6.73
2019-04-05T13:10:35.973Z,5.80
2019-04-05T13:13:03.090Z,5.90
2019-04-05T13:15:43.146Z,6.37
2019-04-05T13:18:12.093Z,6.40
2019-04-05T13:20:48.804Z,7.40
2019-04-05T13:23:17.837Z,6.87
2019-04-05T13:25:49.154Z,6.27
2019-04-05T13:28:25.444Z,6.73
2019-04-05T13:31:01.639Z,6.20
2019-04-05T13:33:30.804Z,6.60
2019-04-05T13:35:58.141Z,5.63
2019-04-05T13:38:26.582Z,6.27
2019-04-05T13:41:01.545Z,5.53
2019-04-05T13:43:31.458Z,5.80
2019-04-05T13:45:57.716Z,5.73
2019-04-05T13:48:33.564Z,5.00
2019-04-05T14:01:20.583Z,4.97
2019-04-05T14:09:52.884Z,5.90
2019-04-05T14:13:02.328Z,5.07
2019-04-05T14:15:32.786Z,5.40
2019-04-05T14:18:20.563Z,5.70
2019-04-05T14:20:56.021Z,5.00
2019-04-05T14:23:33.062Z,4.67
2019-04-05T14:32:41.571Z,5.17
2019-04-05T14:35:25.525Z,5.63
2019-04-05T14:38:12.326Z,5.73
2019-04-05T14:41:00.258Z,5.70
2019-04-05T14:46:57.791Z,4.83
2019-04-05T14:49:25.248Z,5.20
2019-04-05T14:51:56.327Z,4.50
2019-04-05T14:54:22.719Z,4.93
2019-04-05T14:56:51.970Z,5.30
2019-04-05T14:59:26.332Z,4.87
2019-04-05T15:01:54.229Z,5.20
2019-04-05T15:04:22.307Z,4.53
2019-04-05T15:06:51.887Z,5.17
2019-04-05T15:09:24.827Z,4.80
2019-04-05T15:11:50.562Z,4.50
2019-04-05T15:14:18.058Z,5.23
2019-04-05T15:16:49.397Z,4.37
2019-04-05T15:19:18.153Z,5.27
2019-04-05T15:21:46.279Z,6.03
2019-04-05T15:24:26.449Z,4.80
2019-04-05T15:26:55.611Z,5.10
2019-04-05T15:29:26.165Z,5.10
2019-04-05T15:31:57.808Z,4.63
2019-04-05T15:34:28.505Z,4.87
2019-04-05T15:37:01.559Z,5.17
2019-04-05T15:39:30.812Z,4.13
2019-04-05T15:41:58.385Z,4.13
2019-04-05T15:44:26.417Z,4.33
2019-04-05T15:46:54.120Z,4.53
2019-04-05T15:49:22.294Z,4.63
2019-04-05T15:51:49.911Z,4.67
2019-04-05T15:54:19.079Z,4.47
2019-04-05T15:56:48.123Z,4.90
2019-04-05T15:59:15.956Z,4.40
2019-04-05T16:01:43.820Z,5.40
2019-04-05T16:04:11.347Z,6.10
2019-04-05T16:06:39.322Z,6.20
2019-04-05T16:09:11.232Z,6.43
2019-04-05T16:11:39.817Z,5.87
2019-04-05T16:14:08.110Z,6.40
2019-04-05T16:16:38.893Z,6.27
2019-04-05T16:19:08.743Z,5.97
2019-04-05T16:21:37.449Z,6.27
2019-04-05T16:24:05.787Z,6.30
2019-04-05T16:26:35.795Z,7.07
2019-04-05T16:29:04.034Z,6.37
2019-04-05T16:31:33.078Z,6.30
2019-04-05T16:34:02.007Z,6.27
2019-04-05T16:36:31.119Z,5.67
2019-04-05T16:38:59.413Z,6.10
2019-04-05T16:41:28.454Z,6.50
2019-04-05T16:43:56.931Z,6.07
2019-04-05T16:46:25.213Z,5.87
2019-04-05T16:48:54.911Z,5.93
2019-04-05T16:51:23.734Z,6.33
2019-04-05T16:54:00.069Z,5.90
2019-04-05T16:56:30.696Z,6.07
2019-04-05T16:58:58.930Z,6.07
2019-04-05T17:01:28.145Z,5.60
2019-04-05T17:03:56.651Z,5.60
2019-04-05T17:06:25.526Z,5.67
2019-04-05T17:08:53.579Z,5.63
2019-04-05T17:11:25.711Z,5.70
2019-04-05T17:13:59.446Z,5.30
2019-04-05T17:16:25.933Z,5.57
2019-04-05T17:18:54.709Z,5.27
2019-04-05T17:21:23.517Z,5.03
2019-04-05T17:23:56.945Z,5.80
2019-04-05T17:26:24.588Z,5.40
2019-04-05T17:28:54.305Z,5.00
2019-04-05T17:31:21.976Z,5.37
2019-04-05T17:33:53.221Z,4.83
2019-04-05T17:36:21.411Z,4.90
2019-04-05T17:38:49.253Z,5.20
2019-04-05T17:41:18.711Z,5.40
2019-04-05T17:43:47.583Z,5.53
2019-04-05T17:46:15.453Z,5.10
2019-04-05T17:48:43.814Z,4.90
2019-04-05T17:51:11.726Z,4.97
2019-04-05T17:53:42.265Z,5.57
2019-04-05T17:56:15.623Z,5.10
2019-04-05T17:58:43.525Z,4.87
2019-04-05T18:01:11.116Z,5.30
2019-04-05T18:03:38.924Z,4.70
2019-04-05T18:06:07.703Z,4.80
2019-04-05T18:08:35.928Z,5.13
2019-04-05T18:11:06.566Z,5.47
2019-04-05T18:13:35.354Z,4.90
2019-04-05T18:16:04.457Z,5.17
2019-04-05T18:18:33.397Z,5.10
2019-04-05T18:21:01.127Z,4.93
2019-04-05T18:23:28.717Z,5.10
2019-04-05T18:25:56.361Z,5.87
2019-04-05T18:28:26.279Z,5.13
2019-04-05T18:30:54.247Z,5.23
2019-04-05T18:33:22.210Z,5.43
2019-04-05T18:35:49.769Z,4.80
2019-04-05T18:38:17.502Z,5.70
2019-04-05T18:40:45.117Z,4.97
2019-04-05T18:43:13.186Z,5.40
2019-04-05T18:45:40.549Z,5.00
2019-04-05T18:48:08.003Z,5.47
2019-04-05T18:50:35.970Z,5.50
2019-04-05T18:53:03.791Z,6.17
2019-04-05T18:55:31.905Z,5.07
2019-04-05T18:57:59.597Z,5.40
2019-04-05T19:00:29.591Z,5.83
2019-04-05T19:02:57.860Z,6.10
2019-04-05T19:05:25.707Z,5.57
2019-04-05T19:07:53.922Z,6.47
2019-04-05T19:10:21.705Z,6.10
2019-04-05T19:12:49.499Z,5.23
2019-04-05T19:15:21.606Z,6.77
2019-04-05T19:17:49.492Z,6.40
2019-04-05T19:20:18.500Z,6.73
2019-04-05T19:22:49.643Z,6.87
2019-04-05T19:25:23.358Z,7.07
2019-04-05T19:27:51.886Z,7.43
2019-04-05T19:50:33.278Z,7.87
2019-04-05T19:53:01.918Z,7.27
2019-04-05T19:55:29.904Z,6.70
2019-04-05T19:57:57.662Z,7.40
2019-04-05T20:00:25.894Z,7.90
2019-04-05T20:02:53.930Z,7.57
2019-04-05T20:05:22.578Z,8.70
2019-04-05T20:07:51.432Z,7.60
2019-04-05T20:10:20.005Z,7.93
2019-04-05T20:12:59.699Z,8.47
2019-04-05T20:15:32.166Z,7.83
2019-04-05T20:18:00.414Z,8.17
2019-04-05T20:20:28.627Z,8.07
2019-04-05T20:22:56.690Z,8.70
2019-04-05T20:25:25.374Z,8.73
2019-04-05T20:27:53.284Z,9.37
2019-04-05T20:30:27.362Z,8.90
2019-04-05T20:32:55.062Z,8.03
2019-04-05T20:35:22.668Z,8.33
2019-04-05T20:37:53.459Z,8.80
2019-04-05T20:40:22.022Z,8.40
2019-04-05T20:42:50.285Z,8.20
2019-04-05T20:45:18.018Z,9.63
2019-04-05T20:47:45.842Z,9.40
2019-04-05T20:50:19.459Z,9.20
2019-04-05T20:52:47.484Z,8.63
2019-04-05T20:55:15.384Z,9.23
2019-04-05T20:57:43.764Z,8.97
2019-04-05T21:00:12.558Z,9.07
2019-04-05T21:02:40.679Z,9.70
2019-04-05T21:05:08.591Z,8.97
2019-04-05T21:07:36.577Z,9.90
2019-04-05T21:10:05.141Z,9.90
2019-04-05T21:12:33.572Z,9.27
2019-04-05T21:15:01.218Z,9.73
2019-04-05T21:17:29.211Z,9.70
2019-04-05T21:19:58.894Z,9.57
2019-04-05T21:22:27.091Z,9.23
2019-04-05T21:24:54.828Z,9.80
2019-04-05T21:27:22.781Z,9.93
2019-04-05T21:29:50.439Z,9.70
2019-04-05T21:32:26.190Z,9.73
2019-04-05T21:34:54.176Z,11.60
2019-04-05T21:37:27.176Z,10.10
2019-04-05T21:40:00.746Z,10.63
2019-04-05T21:42:28.770Z,10.47
2019-04-05T21:44:56.974Z,9.70
2019-04-05T21:47:25.211Z,10.60
2019-04-05T21:49:52.865Z,10.83
2019-04-05T21:52:21.570Z,10.63
2019-04-05T21:54:50.667Z,11.50
2019-04-05T21:57:18.783Z,12.07
2019-04-05T21:59:46.620Z,11.53
2019-04-05T22:02:14.462Z,12.63
2019-04-05T22:04:42.184Z,11.97
2019-04-05T22:07:10.343Z,12.10
2019-04-05T22:09:38.220Z,12.57
2019-04-05T22:12:27.606Z,12.70
2019-04-05T22:14:55.426Z,13.37
2019-04-05T22:17:23.254Z,13.50
2019-04-05T22:19:51.254Z,12.50
2019-04-05T22:22:19.831Z,13.67
2019-04-05T22:24:58.828Z,14.17
2019-04-05T22:27:22.832Z,14.23
2019-04-05T22:29:52.066Z,14.47
2019-04-05T22:32:25.371Z,13.90
2019-04-05T22:34:53.690Z,13.20
2019-04-05T22:37:27.893Z,12.83
2019-04-05T22:39:56.026Z,11.87
2019-04-05T22:42:24.468Z,14.07
2019-04-05T22:44:52.500Z,14.20
2019-04-05T22:47:21.021Z,13.13
2019-04-05T22:49:50.155Z,13.93
2019-04-05T22:52:18.428Z,14.00
2019-04-05T22:54:46.453Z,13.57
2019-04-05T22:57:15.596Z,14.27
2019-04-05T22:59:44.828Z,13.30
2019-04-05T23:02:12.879Z,13.13
2019-04-05T23:04:40.981Z,14.03
2019-04-05T23:07:15.598Z,13.73
2019-04-05T23:09:44.573Z,13.77
2019-04-05T23:12:13.441Z,13.30
2019-04-05T23:14:41.751Z,14.37
2019-04-05T23:17:10.312Z,13.87
2019-04-05T23:19:38.251Z,13.87
2019-04-05T23:22:07.693Z,13.97
2019-04-05T23:24:37.411Z,13.67
2019-04-05T23:27:07.041Z,14.57
2019-04-05T23:29:35.446Z,13.07
2019-04-05T23:32:11.432Z,14.20
2019-04-05T23:34:42.469Z,14.63
2019-04-05T23:37:10.743Z,14.43
2019-04-05T23:39:39.828Z,13.80
2019-04-05T23:42:07.837Z,15.73
2019-04-05T23:44:36.407Z,15.87
2019-04-05T23:47:04.327Z,15.57
2019-04-05T23:49:32.232Z,16.47
2019-04-05T23:52:02.430Z,16.07
2019-04-05T23:54:30.928Z,16.43
2019-04-05T23:56:59.444Z,16.80
2019-04-05T23:59:27.582Z,16.27
